WGN212 TNCM-GOBD
Flight info
| Callsign | WGN212 |
|---|---|
| Flight time | 5h 36m |
| Altitude | 33000 |
| Route | MODOR2 ELOPO DCT OTUSU DCT ELJEZ/M084F350 DCT 2150N DCT 2340N DCT 22N036W DCT ERNEK/N0490F370 DCT EVKAS DCT BVT DCT MOGSA DCT PIVSA PIVSA1D |
| Aircraft | MD11/H-SDE1E2E3FGHIJ2J3J4J5M1RWXY/LB1D1 |
Departure
| Time | 2026-04-25 14:59 |
|---|---|
| Airport | Princess Juliana International Airport (TNCM) |
Arrival
| Time | 2026-04-25 20:36 |
|---|---|
| Airport | Blaise Diagne International Airport (GOBD) |
| Time | Latitude | Longitude | Altitude | Speed | Heading |
|---|---|---|---|---|---|
| 2026-04-25 14:12 | 18.04308 | -63.11430 | 36 ft | 0 kts | 351° |
| 2026-04-25 14:48 | 18.04303 | -63.11429 | 34 ft | 3 kts | 351° |
| 2026-04-25 14:48 | 18.04277 | -63.11425 | 36 ft | 4 kts | 351° |
| 2026-04-25 14:48 | 18.04256 | -63.11421 | 35 ft | 4 kts | 359° |
| 2026-04-25 14:48 | 18.04236 | -63.11423 | 35 ft | 4 kts | 44° |
| 2026-04-25 14:49 | 18.04227 | -63.11439 | 36 ft | 4 kts | 81° |
| 2026-04-25 14:49 | 18.04224 | -63.11463 | 36 ft | 1 kts | 81° |
| 2026-04-25 14:53 | 18.04225 | -63.11451 | 36 ft | 4 kts | 81° |
| 2026-04-25 14:53 | 18.04231 | -63.11411 | 34 ft | 7 kts | 81° |
| 2026-04-25 14:53 | 18.04237 | -63.11348 | 36 ft | 9 kts | 99° |
| 2026-04-25 14:54 | 18.04215 | -63.11317 | 36 ft | 4 kts | 149° |
| 2026-04-25 14:54 | 18.04180 | -63.11306 | 34 ft | 7 kts | 169° |
| 2026-04-25 14:54 | 18.04112 | -63.11293 | 35 ft | 12 kts | 170° |
| 2026-04-25 14:54 | 18.04051 | -63.11292 | 35 ft | 4 kts | 192° |
| 2026-04-25 14:55 | 18.04034 | -63.11313 | 35 ft | 4 kts | 247° |
| 2026-04-25 14:55 | 18.04026 | -63.11358 | 35 ft | 9 kts | 261° |
| 2026-04-25 14:55 | 18.04012 | -63.11450 | 35 ft | 16 kts | 261° |
| 2026-04-25 14:55 | 18.03994 | -63.11570 | 35 ft | 16 kts | 263° |
| 2026-04-25 14:56 | 18.03981 | -63.11673 | 34 ft | 13 kts | 261° |
| 2026-04-25 14:56 | 18.03965 | -63.11779 | 35 ft | 16 kts | 261° |
| 2026-04-25 14:56 | 18.03975 | -63.11889 | 35 ft | 14 kts | 287° |
| 2026-04-25 14:56 | 18.03987 | -63.11936 | 35 ft | 2 kts | 276° |
| 2026-04-25 14:57 | 18.03981 | -63.11952 | 35 ft | 2 kts | 236° |
| 2026-04-25 14:57 | 18.03958 | -63.11960 | 35 ft | 5 kts | 193° |
| 2026-04-25 14:57 | 18.03945 | -63.11954 | 35 ft | 2 kts | 150° |
| 2026-04-25 14:57 | 18.03941 | -63.11943 | 35 ft | 1 kts | 105° |
| 2026-04-25 14:58 | 18.03943 | -63.11938 | 35 ft | 1 kts | 80° |
| 2026-04-25 14:59 | 18.03951 | -63.11887 | 35 ft | 35 kts | 81° |
| 2026-04-25 14:59 | 18.04034 | -63.11311 | 35 ft | 122 kts | 81° |
| 2026-04-25 14:59 | 18.04195 | -63.10174 | 61 ft | 184 kts | 82° |
| 2026-04-25 14:59 | 18.04318 | -63.08871 | 910 ft | 174 kts | 98° |
| 2026-04-25 15:00 | 18.03854 | -63.07715 | 1740 ft | 178 kts | 134° |
| 2026-04-25 15:00 | 18.02767 | -63.07017 | 2255 ft | 195 kts | 161° |
| 2026-04-25 15:00 | 18.01418 | -63.06630 | 2740 ft | 201 kts | 165° |
| 2026-04-25 15:00 | 18.00037 | -63.06247 | 3258 ft | 218 kts | 164° |
| 2026-04-25 15:01 | 17.98504 | -63.05835 | 3558 ft | 240 kts | 165° |
| 2026-04-25 15:01 | 17.96864 | -63.05400 | 4225 ft | 239 kts | 165° |
| 2026-04-25 15:01 | 17.95262 | -63.04984 | 4979 ft | 241 kts | 166° |
| 2026-04-25 15:01 | 17.93602 | -63.04555 | 5412 ft | 250 kts | 165° |
| 2026-04-25 15:02 | 17.91895 | -63.04083 | 5900 ft | 256 kts | 165° |
| 2026-04-25 15:02 | 17.90206 | -63.03490 | 6456 ft | 256 kts | 152° |
| 2026-04-25 15:02 | 17.88863 | -63.02238 | 6813 ft | 268 kts | 124° |
| 2026-04-25 15:02 | 17.88115 | -63.00402 | 7127 ft | 276 kts | 109° |
| 2026-04-25 15:03 | 17.87535 | -62.98488 | 7681 ft | 277 kts | 110° |
| 2026-04-25 15:03 | 17.86875 | -62.96580 | 8124 ft | 281 kts | 113° |
| 2026-04-25 15:03 | 17.86113 | -62.94665 | 8771 ft | 286 kts | 116° |
| 2026-04-25 15:03 | 17.85286 | -62.92791 | 9683 ft | 284 kts | 117° |
| 2026-04-25 15:04 | 17.84400 | -62.90939 | 10337 ft | 289 kts | 120° |
| 2026-04-25 15:04 | 17.83437 | -62.89048 | 10866 ft | 302 kts | 120° |
| 2026-04-25 15:04 | 17.82398 | -62.87049 | 11139 ft | 321 kts | 121° |
| 2026-04-25 15:04 | 17.81273 | -62.84940 | 11509 ft | 337 kts | 122° |
| 2026-04-25 15:05 | 17.80096 | -62.82781 | 12139 ft | 345 kts | 122° |
| 2026-04-25 15:05 | 17.78875 | -62.80533 | 12545 ft | 360 kts | 122° |
| 2026-04-25 15:05 | 17.77611 | -62.78200 | 12879 ft | 375 kts | 122° |
| 2026-04-25 15:06 | 17.74965 | -62.73332 | 13837 ft | 389 kts | 122° |
| 2026-04-25 15:06 | 17.74073 | -62.71697 | 14076 ft | 391 kts | 122° |
| 2026-04-25 15:06 | 17.72720 | -62.69217 | 14458 ft | 393 kts | 122° |
| 2026-04-25 15:06 | 17.71354 | -62.66712 | 14823 ft | 396 kts | 122° |
| 2026-04-25 15:07 | 17.69980 | -62.64193 | 14956 ft | 399 kts | 122° |
| 2026-04-25 15:07 | 17.68601 | -62.61665 | 14978 ft | 400 kts | 122° |
| 2026-04-25 15:07 | 17.67219 | -62.59135 | 14976 ft | 400 kts | 122° |
| 2026-04-25 15:07 | 17.65886 | -62.56568 | 15518 ft | 402 kts | 117° |
| 2026-04-25 15:08 | 17.65014 | -62.53764 | 16085 ft | 410 kts | 102° |
| 2026-04-25 15:08 | 17.64759 | -62.50767 | 16598 ft | 416 kts | 92° |
| 2026-04-25 15:08 | 17.64793 | -62.47712 | 17105 ft | 422 kts | 89° |
| 2026-04-25 15:08 | 17.64916 | -62.44622 | 17611 ft | 426 kts | 89° |
| 2026-04-25 15:09 | 17.65039 | -62.41499 | 18115 ft | 430 kts | 89° |
| 2026-04-25 15:09 | 17.65136 | -62.38349 | 18594 ft | 434 kts | 90° |
| 2026-04-25 15:09 | 17.65254 | -62.31975 | 19513 ft | 441 kts | 91° |
| 2026-04-25 15:10 | 17.65293 | -62.28751 | 19947 ft | 444 kts | 91° |
| 2026-04-25 15:10 | 17.65327 | -62.25501 | 20368 ft | 447 kts | 91° |
| 2026-04-25 15:10 | 17.65386 | -62.18969 | 21230 ft | 454 kts | 91° |
| 2026-04-25 15:11 | 17.65416 | -62.15651 | 21635 ft | 457 kts | 91° |
| 2026-04-25 15:11 | 17.65449 | -62.12298 | 22050 ft | 461 kts | 91° |
| 2026-04-25 15:11 | 17.65480 | -62.08924 | 22471 ft | 464 kts | 92° |
| 2026-04-25 15:12 | 17.65540 | -62.02112 | 23330 ft | 471 kts | 92° |
| 2026-04-25 15:12 | 17.65569 | -61.98664 | 23751 ft | 474 kts | 92° |
| 2026-04-25 15:12 | 17.65598 | -61.95187 | 24197 ft | 477 kts | 92° |
| 2026-04-25 15:12 | 17.65617 | -61.92879 | 24480 ft | 479 kts | 92° |
| 2026-04-25 15:13 | 17.65655 | -61.88182 | 25023 ft | 484 kts | 92° |
| 2026-04-25 15:13 | 17.65711 | -61.81104 | 25813 ft | 492 kts | 92° |
| 2026-04-25 15:13 | 17.65739 | -61.77506 | 26191 ft | 496 kts | 92° |
| 2026-04-25 15:14 | 17.65765 | -61.73873 | 26567 ft | 500 kts | 92° |
| 2026-04-25 15:14 | 17.65791 | -61.70218 | 26943 ft | 503 kts | 92° |
| 2026-04-25 15:14 | 17.65814 | -61.66531 | 27329 ft | 507 kts | 92° |
| 2026-04-25 15:14 | 17.65833 | -61.62821 | 27691 ft | 510 kts | 92° |
| 2026-04-25 15:15 | 17.65851 | -61.59088 | 28033 ft | 514 kts | 91° |
| 2026-04-25 15:15 | 17.65872 | -61.55328 | 28371 ft | 518 kts | 92° |
| 2026-04-25 15:15 | 17.65892 | -61.51541 | 28703 ft | 521 kts | 92° |
| 2026-04-25 15:15 | 17.65914 | -61.47735 | 29047 ft | 524 kts | 91° |
| 2026-04-25 15:16 | 17.65936 | -61.43904 | 29382 ft | 527 kts | 91° |
| 2026-04-25 15:16 | 17.65958 | -61.40043 | 29699 ft | 530 kts | 91° |
| 2026-04-25 15:16 | 17.66001 | -61.32270 | 30298 ft | 536 kts | 91° |
| 2026-04-25 15:17 | 17.66040 | -61.24505 | 31031 ft | 535 kts | 92° |
| 2026-04-25 15:17 | 17.66059 | -61.20608 | 31448 ft | 534 kts | 92° |
| 2026-04-25 15:17 | 17.66077 | -61.16718 | 31832 ft | 533 kts | 92° |
| 2026-04-25 15:18 | 17.66092 | -61.12836 | 32207 ft | 531 kts | 92° |
| 2026-04-25 15:18 | 17.66122 | -61.05116 | 32892 ft | 530 kts | 93° |
| 2026-04-25 15:18 | 17.66136 | -61.01258 | 32968 ft | 530 kts | 93° |
| 2026-04-25 15:19 | 17.66158 | -60.94826 | 32999 ft | 531 kts | 93° |
| 2026-04-25 15:19 | 17.66184 | -60.85782 | 32992 ft | 531 kts | 93° |
| 2026-04-25 15:20 | 17.66202 | -60.78044 | 32986 ft | 531 kts | 93° |
| 2026-04-25 15:20 | 17.66206 | -60.70304 | 32989 ft | 531 kts | 93° |
| 2026-04-25 15:21 | 17.66214 | -60.62612 | 32988 ft | 531 kts | 93° |
| 2026-04-25 15:21 | 17.66224 | -60.54873 | 32991 ft | 531 kts | 93° |
| 2026-04-25 15:22 | 17.66234 | -60.47130 | 32994 ft | 531 kts | 93° |
| 2026-04-25 15:22 | 17.66239 | -60.39386 | 32983 ft | 531 kts | 93° |
| 2026-04-25 15:23 | 17.66240 | -60.31674 | 32988 ft | 531 kts | 93° |
| 2026-04-25 15:23 | 17.66238 | -60.23928 | 32981 ft | 531 kts | 93° |
| 2026-04-25 15:24 | 17.66234 | -60.16186 | 32986 ft | 531 kts | 93° |
| 2026-04-25 15:24 | 17.66226 | -60.09750 | 32991 ft | 531 kts | 93° |
| 2026-04-25 15:25 | 17.66215 | -60.00678 | 32991 ft | 531 kts | 93° |
| 2026-04-25 15:25 | 17.66202 | -59.92933 | 32981 ft | 532 kts | 93° |
| 2026-04-25 15:26 | 17.66174 | -59.85178 | 32982 ft | 532 kts | 93° |
| 2026-04-25 15:26 | 17.66143 | -59.77467 | 32990 ft | 532 kts | 93° |
| 2026-04-25 15:27 | 17.66120 | -59.69719 | 32991 ft | 531 kts | 93° |
| 2026-04-25 15:28 | 17.66082 | -59.58106 | 32993 ft | 531 kts | 93° |
| 2026-04-25 15:28 | 17.66052 | -59.50370 | 32992 ft | 530 kts | 93° |
| 2026-04-25 15:29 | 17.66019 | -59.42634 | 32982 ft | 530 kts | 93° |
| 2026-04-25 15:29 | 17.65984 | -59.34955 | 32983 ft | 529 kts | 93° |
| 2026-04-25 15:30 | 17.65945 | -59.27239 | 32982 ft | 529 kts | 93° |
| 2026-04-25 15:30 | 17.65901 | -59.19523 | 32993 ft | 529 kts | 93° |
| 2026-04-25 15:31 | 17.65858 | -59.11789 | 32987 ft | 528 kts | 93° |
| 2026-04-25 15:31 | 17.65807 | -59.04081 | 32992 ft | 529 kts | 93° |
| 2026-04-25 15:32 | 17.65742 | -58.96421 | 32993 ft | 528 kts | 93° |
| 2026-04-25 15:32 | 17.65681 | -58.88715 | 32995 ft | 529 kts | 93° |
| 2026-04-25 15:33 | 17.65594 | -58.77147 | 32993 ft | 529 kts | 93° |
| 2026-04-25 15:33 | 17.65532 | -58.69429 | 32989 ft | 529 kts | 93° |
| 2026-04-25 15:34 | 17.65469 | -58.61705 | 32978 ft | 529 kts | 93° |
| 2026-04-25 15:34 | 17.65412 | -58.55288 | 32987 ft | 530 kts | 93° |
| 2026-04-25 15:35 | 17.65292 | -58.42390 | 32993 ft | 530 kts | 93° |
| 2026-04-25 15:36 | 17.65179 | -58.30793 | 32989 ft | 530 kts | 93° |
| 2026-04-25 15:36 | 17.65100 | -58.23107 | 32993 ft | 530 kts | 93° |
| 2026-04-25 15:37 | 17.65009 | -58.15357 | 32989 ft | 530 kts | 93° |
| 2026-04-25 15:37 | 17.64907 | -58.07618 | 32989 ft | 531 kts | 93° |
| 2026-04-25 15:38 | 17.64815 | -57.99873 | 32992 ft | 531 kts | 93° |
| 2026-04-25 15:38 | 17.64722 | -57.92138 | 32987 ft | 530 kts | 93° |
| 2026-04-25 15:39 | 17.64628 | -57.84444 | 32993 ft | 530 kts | 93° |
| 2026-04-25 15:39 | 17.64531 | -57.76711 | 32989 ft | 530 kts | 93° |
| 2026-04-25 15:40 | 17.64464 | -57.71542 | 32992 ft | 530 kts | 93° |
| 2026-04-25 15:40 | 17.64326 | -57.61259 | 32989 ft | 530 kts | 93° |
| 2026-04-25 15:41 | 17.64342 | -57.53530 | 32992 ft | 531 kts | 88° |
| 2026-04-25 15:41 | 17.65963 | -57.45982 | 32981 ft | 534 kts | 68° |
| 2026-04-25 15:42 | 17.69748 | -57.39321 | 32996 ft | 533 kts | 49° |
| 2026-04-25 15:42 | 17.74716 | -57.33613 | 32983 ft | 533 kts | 46° |
| 2026-04-25 15:43 | 17.79581 | -57.27724 | 32989 ft | 533 kts | 50° |
| 2026-04-25 15:43 | 17.84155 | -57.21596 | 32994 ft | 533 kts | 52° |
| 2026-04-25 15:44 | 17.88638 | -57.15393 | 32982 ft | 533 kts | 52° |
| 2026-04-25 15:44 | 17.93125 | -57.09191 | 32986 ft | 533 kts | 52° |
| 2026-04-25 15:45 | 17.97626 | -57.03002 | 32996 ft | 533 kts | 52° |
| 2026-04-25 15:45 | 18.00638 | -56.98866 | 32982 ft | 532 kts | 52° |
| 2026-04-25 15:46 | 18.06314 | -56.90364 | 32994 ft | 536 kts | 61° |
| 2026-04-25 15:46 | 18.09565 | -56.83312 | 32985 ft | 536 kts | 66° |
| 2026-04-25 15:47 | 18.12608 | -56.76153 | 32982 ft | 536 kts | 65° |
| 2026-04-25 15:47 | 18.15729 | -56.69030 | 32994 ft | 536 kts | 65° |
| 2026-04-25 15:48 | 18.18879 | -56.61986 | 32982 ft | 535 kts | 65° |
| 2026-04-25 15:48 | 18.22057 | -56.54904 | 32984 ft | 535 kts | 65° |
| 2026-04-25 15:49 | 18.25226 | -56.47823 | 32986 ft | 535 kts | 65° |
| 2026-04-25 15:49 | 18.28389 | -56.40741 | 32977 ft | 534 kts | 65° |
| 2026-04-25 15:50 | 18.31548 | -56.33655 | 32987 ft | 534 kts | 65° |
| 2026-04-25 15:50 | 18.34704 | -56.26569 | 32995 ft | 534 kts | 65° |
| 2026-04-25 15:51 | 18.36817 | -56.21821 | 32990 ft | 534 kts | 65° |
| 2026-04-25 15:51 | 18.41011 | -56.12379 | 32987 ft | 534 kts | 65° |
| 2026-04-25 15:52 | 18.44148 | -56.05280 | 32980 ft | 535 kts | 65° |
| 2026-04-25 15:52 | 18.47265 | -55.98232 | 32978 ft | 534 kts | 65° |
| 2026-04-25 15:53 | 18.50406 | -55.91136 | 32980 ft | 534 kts | 65° |
| 2026-04-25 15:53 | 18.53547 | -55.84034 | 32976 ft | 534 kts | 65° |
| 2026-04-25 15:54 | 18.56687 | -55.76927 | 32977 ft | 535 kts | 65° |
| 2026-04-25 15:54 | 18.59830 | -55.69806 | 32983 ft | 536 kts | 65° |
| 2026-04-25 15:55 | 18.62967 | -55.62682 | 32975 ft | 536 kts | 65° |
| 2026-04-25 15:55 | 18.65576 | -55.56751 | 32985 ft | 536 kts | 65° |
| 2026-04-25 15:56 | 18.68715 | -55.49611 | 32970 ft | 537 kts | 65° |
| 2026-04-25 15:56 | 18.71856 | -55.42458 | 32968 ft | 538 kts | 65° |
| 2026-04-25 15:57 | 18.74997 | -55.35295 | 32967 ft | 538 kts | 65° |
| 2026-04-25 15:57 | 18.78114 | -55.28152 | 32980 ft | 538 kts | 65° |
| 2026-04-25 15:58 | 18.81248 | -55.20963 | 32986 ft | 539 kts | 65° |
| 2026-04-25 15:58 | 18.84385 | -55.13773 | 32975 ft | 539 kts | 65° |
| 2026-04-25 15:59 | 18.87520 | -55.06587 | 32971 ft | 539 kts | 65° |
| 2026-04-25 15:59 | 18.90631 | -54.99453 | 32968 ft | 539 kts | 65° |
| 2026-04-25 16:00 | 18.93255 | -54.93423 | 32954 ft | 539 kts | 65° |
| 2026-04-25 16:00 | 18.96891 | -54.85058 | 32964 ft | 540 kts | 65° |
| 2026-04-25 16:01 | 19.00021 | -54.77850 | 32960 ft | 540 kts | 65° |
| 2026-04-25 16:01 | 19.03151 | -54.70634 | 32961 ft | 540 kts | 65° |
| 2026-04-25 16:02 | 19.06275 | -54.63419 | 32957 ft | 540 kts | 65° |
| 2026-04-25 16:02 | 19.09396 | -54.56202 | 32959 ft | 540 kts | 65° |
| 2026-04-25 16:03 | 19.12505 | -54.48978 | 32953 ft | 540 kts | 65° |
| 2026-04-25 16:03 | 19.15611 | -54.41748 | 32952 ft | 540 kts | 65° |
| 2026-04-25 16:04 | 19.18726 | -54.34511 | 32953 ft | 540 kts | 65° |
| 2026-04-25 16:04 | 19.21822 | -54.27320 | 32954 ft | 540 kts | 65° |
| 2026-04-25 16:05 | 19.24931 | -54.20083 | 32954 ft | 541 kts | 65° |
| 2026-04-25 16:06 | 19.29600 | -54.09195 | 32945 ft | 541 kts | 65° |
| 2026-04-25 16:06 | 19.32706 | -54.01942 | 32944 ft | 541 kts | 65° |
| 2026-04-25 16:07 | 19.35812 | -53.94685 | 32944 ft | 541 kts | 65° |
| 2026-04-25 16:07 | 19.38914 | -53.87424 | 32944 ft | 541 kts | 65° |
| 2026-04-25 16:08 | 19.42015 | -53.80151 | 32943 ft | 542 kts | 65° |
| 2026-04-25 16:08 | 19.45098 | -53.72911 | 32945 ft | 542 kts | 65° |
| 2026-04-25 16:09 | 19.48185 | -53.65621 | 32944 ft | 542 kts | 65° |
| 2026-04-25 16:09 | 19.51277 | -53.58324 | 32942 ft | 542 kts | 65° |
| 2026-04-25 16:10 | 19.54365 | -53.51043 | 32941 ft | 542 kts | 65° |
| 2026-04-25 16:10 | 19.57452 | -53.43758 | 32944 ft | 542 kts | 65° |
| 2026-04-25 16:11 | 19.60540 | -53.36467 | 32944 ft | 542 kts | 65° |
| 2026-04-25 16:11 | 19.63604 | -53.29218 | 32944 ft | 542 kts | 65° |
| 2026-04-25 16:12 | 19.66685 | -53.21922 | 32943 ft | 542 kts | 65° |
| 2026-04-25 16:12 | 19.69763 | -53.14618 | 32944 ft | 541 kts | 65° |
| 2026-04-25 16:13 | 19.72837 | -53.07318 | 32943 ft | 541 kts | 65° |
| 2026-04-25 16:13 | 19.75903 | -53.00018 | 32936 ft | 542 kts | 65° |
| 2026-04-25 16:14 | 19.78973 | -52.92702 | 32935 ft | 542 kts | 65° |
| 2026-04-25 16:14 | 19.82027 | -52.85382 | 32934 ft | 542 kts | 65° |
| 2026-04-25 16:15 | 19.85087 | -52.78055 | 32935 ft | 543 kts | 65° |
| 2026-04-25 16:15 | 19.88155 | -52.70711 | 32934 ft | 543 kts | 65° |
| 2026-04-25 16:16 | 19.91200 | -52.63421 | 32967 ft | 543 kts | 65° |
| 2026-04-25 16:16 | 19.94263 | -52.56076 | 32979 ft | 544 kts | 65° |
| 2026-04-25 16:17 | 19.97326 | -52.48720 | 32984 ft | 544 kts | 65° |
| 2026-04-25 16:17 | 20.00387 | -52.41362 | 32982 ft | 544 kts | 65° |
| 2026-04-25 16:18 | 20.03446 | -52.33993 | 32972 ft | 545 kts | 65° |
| 2026-04-25 16:18 | 20.06507 | -52.26609 | 32970 ft | 545 kts | 65° |
| 2026-04-25 16:19 | 20.09564 | -52.19225 | 32991 ft | 545 kts | 65° |
| 2026-04-25 16:19 | 20.12615 | -52.11840 | 32993 ft | 545 kts | 65° |
| 2026-04-25 16:20 | 20.17172 | -52.00749 | 32989 ft | 545 kts | 65° |
| 2026-04-25 16:21 | 20.21723 | -51.89690 | 32986 ft | 545 kts | 65° |
| 2026-04-25 16:21 | 20.24765 | -51.82294 | 32995 ft | 545 kts | 65° |
| 2026-04-25 16:22 | 20.27805 | -51.74894 | 32997 ft | 546 kts | 65° |
| 2026-04-25 16:22 | 20.30845 | -51.67477 | 33000 ft | 546 kts | 65° |
| 2026-04-25 16:23 | 20.33881 | -51.60060 | 33000 ft | 546 kts | 65° |
| 2026-04-25 16:23 | 20.36917 | -51.52633 | 32999 ft | 546 kts | 65° |
| 2026-04-25 16:24 | 20.39951 | -51.45200 | 33000 ft | 546 kts | 65° |
| 2026-04-25 16:24 | 20.42982 | -51.37774 | 32998 ft | 546 kts | 65° |
| 2026-04-25 16:25 | 20.46007 | -51.30336 | 32996 ft | 547 kts | 65° |
| 2026-04-25 16:25 | 20.48999 | -51.22933 | 32999 ft | 547 kts | 65° |
| 2026-04-25 16:26 | 20.52013 | -51.15483 | 32998 ft | 548 kts | 65° |
| 2026-04-25 16:26 | 20.55037 | -51.08019 | 32999 ft | 548 kts | 65° |
| 2026-04-25 16:27 | 20.58060 | -51.00558 | 32999 ft | 548 kts | 65° |
| 2026-04-25 16:27 | 20.61075 | -50.93099 | 32999 ft | 548 kts | 65° |
| 2026-04-25 16:28 | 20.64088 | -50.85629 | 32998 ft | 547 kts | 65° |
| 2026-04-25 16:28 | 20.67098 | -50.78153 | 32978 ft | 548 kts | 65° |
| 2026-04-25 16:29 | 20.70105 | -50.70680 | 32981 ft | 547 kts | 65° |
| 2026-04-25 16:29 | 20.73113 | -50.63195 | 32980 ft | 548 kts | 65° |
| 2026-04-25 16:30 | 20.76114 | -50.55716 | 32984 ft | 547 kts | 65° |
| 2026-04-25 16:30 | 20.79089 | -50.48282 | 32979 ft | 548 kts | 65° |
| 2026-04-25 16:31 | 20.82069 | -50.40789 | 32979 ft | 548 kts | 65° |
| 2026-04-25 16:31 | 20.85058 | -50.33278 | 32982 ft | 548 kts | 65° |
| 2026-04-25 16:32 | 20.88052 | -50.25772 | 32975 ft | 548 kts | 65° |
| 2026-04-25 16:32 | 20.91041 | -50.18267 | 32977 ft | 549 kts | 65° |
| 2026-04-25 16:33 | 20.94007 | -50.10808 | 32980 ft | 548 kts | 65° |
| 2026-04-25 16:33 | 20.96991 | -50.03295 | 32980 ft | 548 kts | 65° |
| 2026-04-25 16:34 | 20.99972 | -49.95774 | 32980 ft | 548 kts | 65° |
| 2026-04-25 16:34 | 21.02948 | -49.88254 | 32984 ft | 548 kts | 65° |
| 2026-04-25 16:35 | 21.05721 | -49.80636 | 32995 ft | 550 kts | 72° |
| 2026-04-25 16:35 | 21.07664 | -49.72703 | 32991 ft | 551 kts | 76° |
| 2026-04-25 16:36 | 21.09356 | -49.64752 | 32988 ft | 551 kts | 76° |
| 2026-04-25 16:36 | 21.11116 | -49.56764 | 32993 ft | 551 kts | 76° |
| 2026-04-25 16:37 | 21.12930 | -49.48788 | 32989 ft | 551 kts | 75° |
| 2026-04-25 16:37 | 21.14753 | -49.40807 | 32988 ft | 551 kts | 75° |
| 2026-04-25 16:38 | 21.16570 | -49.32823 | 32996 ft | 551 kts | 75° |
| 2026-04-25 16:38 | 21.18376 | -49.24848 | 32987 ft | 551 kts | 76° |
| 2026-04-25 16:39 | 21.20179 | -49.16870 | 32990 ft | 551 kts | 76° |
| 2026-04-25 16:39 | 21.21969 | -49.08935 | 32995 ft | 551 kts | 76° |
| 2026-04-25 16:40 | 21.23768 | -49.00954 | 32988 ft | 551 kts | 75° |
| 2026-04-25 16:40 | 21.25556 | -48.92953 | 32995 ft | 552 kts | 76° |
| 2026-04-25 16:41 | 21.27331 | -48.84949 | 32986 ft | 551 kts | 76° |
| 2026-04-25 16:41 | 21.30003 | -48.72951 | 32983 ft | 551 kts | 75° |
| 2026-04-25 16:42 | 21.31785 | -48.64951 | 32981 ft | 552 kts | 75° |
| 2026-04-25 16:42 | 21.33565 | -48.56942 | 32992 ft | 553 kts | 75° |
| 2026-04-25 16:43 | 21.35334 | -48.48961 | 32991 ft | 553 kts | 76° |
| 2026-04-25 16:43 | 21.37108 | -48.40934 | 32986 ft | 553 kts | 75° |
| 2026-04-25 16:44 | 21.38878 | -48.32901 | 32994 ft | 553 kts | 75° |
| 2026-04-25 16:44 | 21.40648 | -48.24857 | 32989 ft | 554 kts | 75° |
| 2026-04-25 16:45 | 21.42116 | -48.18169 | 32983 ft | 554 kts | 75° |
| 2026-04-25 16:45 | 21.44169 | -48.08790 | 32984 ft | 554 kts | 76° |
| 2026-04-25 16:46 | 21.45631 | -48.02030 | 32990 ft | 554 kts | 76° |
| 2026-04-25 16:46 | 21.47083 | -47.95323 | 32995 ft | 554 kts | 75° |
| 2026-04-25 16:47 | 21.49116 | -47.85954 | 32995 ft | 554 kts | 75° |
| 2026-04-25 16:47 | 21.50872 | -47.77867 | 32989 ft | 554 kts | 75° |
| 2026-04-25 16:48 | 21.52613 | -47.69814 | 32995 ft | 554 kts | 75° |
| 2026-04-25 16:48 | 21.54353 | -47.61749 | 32986 ft | 554 kts | 75° |
| 2026-04-25 16:49 | 21.56088 | -47.53688 | 32987 ft | 554 kts | 75° |
| 2026-04-25 16:49 | 21.57821 | -47.45625 | 32994 ft | 554 kts | 76° |
| 2026-04-25 16:50 | 21.59539 | -47.37603 | 32984 ft | 554 kts | 76° |
| 2026-04-25 16:50 | 21.61262 | -47.29534 | 32996 ft | 554 kts | 75° |
| 2026-04-25 16:51 | 21.62980 | -47.21462 | 32995 ft | 554 kts | 76° |
| 2026-04-25 16:51 | 21.64398 | -47.14728 | 32996 ft | 554 kts | 76° |
| 2026-04-25 16:52 | 21.66387 | -47.05295 | 32987 ft | 554 kts | 76° |
| 2026-04-25 16:52 | 21.68084 | -46.97268 | 32996 ft | 554 kts | 75° |
| 2026-04-25 16:53 | 21.70567 | -46.85503 | 32995 ft | 554 kts | 76° |
| 2026-04-25 16:54 | 21.72264 | -46.77424 | 32986 ft | 553 kts | 75° |
| 2026-04-25 16:54 | 21.73943 | -46.69404 | 32989 ft | 553 kts | 75° |
| 2026-04-25 16:55 | 21.75634 | -46.61321 | 32994 ft | 554 kts | 75° |
| 2026-04-25 16:55 | 21.77325 | -46.53220 | 32988 ft | 554 kts | 75° |
| 2026-04-25 16:56 | 21.79008 | -46.45134 | 32996 ft | 554 kts | 75° |
| 2026-04-25 16:56 | 21.80691 | -46.37024 | 32984 ft | 555 kts | 75° |
| 2026-04-25 16:57 | 21.82356 | -46.28912 | 32986 ft | 555 kts | 75° |
| 2026-04-25 16:57 | 21.84018 | -46.20799 | 32995 ft | 555 kts | 75° |
| 2026-04-25 16:58 | 21.85685 | -46.12678 | 32990 ft | 556 kts | 75° |
| 2026-04-25 16:58 | 21.87356 | -46.04555 | 32985 ft | 556 kts | 75° |
| 2026-04-25 16:59 | 21.89011 | -45.96479 | 32996 ft | 556 kts | 75° |
| 2026-04-25 16:59 | 21.90671 | -45.88349 | 32981 ft | 556 kts | 75° |
| 2026-04-25 17:00 | 21.92328 | -45.80213 | 32995 ft | 556 kts | 75° |
| 2026-04-25 17:00 | 21.93980 | -45.72079 | 32995 ft | 556 kts | 76° |
| 2026-04-25 17:01 | 21.95630 | -45.63941 | 32984 ft | 555 kts | 76° |
| 2026-04-25 17:01 | 21.97275 | -45.55803 | 32991 ft | 555 kts | 76° |
| 2026-04-25 17:02 | 21.98910 | -45.47680 | 32982 ft | 555 kts | 76° |
| 2026-04-25 17:02 | 22.00520 | -45.39600 | 32996 ft | 555 kts | 76° |
| 2026-04-25 17:03 | 22.02143 | -45.31451 | 32987 ft | 556 kts | 76° |
| 2026-04-25 17:03 | 22.03771 | -45.23293 | 32988 ft | 556 kts | 76° |
| 2026-04-25 17:04 | 22.05398 | -45.15128 | 32993 ft | 557 kts | 76° |
| 2026-04-25 17:04 | 22.07026 | -45.06951 | 32994 ft | 557 kts | 76° |
| 2026-04-25 17:05 | 22.08646 | -44.98784 | 32992 ft | 557 kts | 76° |
| 2026-04-25 17:05 | 22.11068 | -44.86526 | 32996 ft | 557 kts | 76° |
| 2026-04-25 17:06 | 22.12680 | -44.78341 | 32989 ft | 557 kts | 76° |
| 2026-04-25 17:06 | 22.14285 | -44.70169 | 32992 ft | 557 kts | 76° |
| 2026-04-25 17:07 | 22.15876 | -44.62047 | 32994 ft | 557 kts | 76° |
| 2026-04-25 17:07 | 22.17460 | -44.53864 | 32986 ft | 557 kts | 76° |
| 2026-04-25 17:08 | 22.19041 | -44.45675 | 32995 ft | 557 kts | 76° |
| 2026-04-25 17:08 | 22.20627 | -44.37493 | 32995 ft | 557 kts | 76° |
| 2026-04-25 17:09 | 22.22213 | -44.29313 | 32983 ft | 557 kts | 76° |
| 2026-04-25 17:09 | 22.23794 | -44.21129 | 32986 ft | 557 kts | 76° |
| 2026-04-25 17:10 | 22.25370 | -44.12942 | 32997 ft | 557 kts | 76° |
| 2026-04-25 17:10 | 22.26944 | -44.04746 | 32991 ft | 557 kts | 76° |
| 2026-04-25 17:11 | 22.28512 | -43.96556 | 32989 ft | 557 kts | 76° |
| 2026-04-25 17:11 | 22.30075 | -43.88366 | 32987 ft | 557 kts | 76° |
| 2026-04-25 17:12 | 22.31638 | -43.80157 | 32993 ft | 557 kts | 76° |
| 2026-04-25 17:12 | 22.33196 | -43.71952 | 32993 ft | 557 kts | 76° |
| 2026-04-25 17:13 | 22.34212 | -43.66531 | 32992 ft | 556 kts | 76° |
| 2026-04-25 17:13 | 22.36253 | -43.55609 | 32987 ft | 557 kts | 76° |
| 2026-04-25 17:14 | 22.37796 | -43.47412 | 32982 ft | 557 kts | 76° |
| 2026-04-25 17:14 | 22.39340 | -43.39200 | 32995 ft | 556 kts | 76° |
| 2026-04-25 17:15 | 22.40875 | -43.30992 | 32996 ft | 556 kts | 76° |
| 2026-04-25 17:15 | 22.42403 | -43.22802 | 32988 ft | 556 kts | 76° |
| 2026-04-25 17:16 | 22.43928 | -43.14607 | 32981 ft | 556 kts | 76° |
| 2026-04-25 17:16 | 22.45448 | -43.06412 | 32995 ft | 556 kts | 76° |
| 2026-04-25 17:17 | 22.46950 | -42.98281 | 32980 ft | 555 kts | 76° |
| 2026-04-25 17:17 | 22.48459 | -42.90099 | 32983 ft | 555 kts | 76° |
| 2026-04-25 17:18 | 22.49962 | -42.81908 | 32995 ft | 555 kts | 76° |
| 2026-04-25 17:18 | 22.51446 | -42.73712 | 32987 ft | 555 kts | 76° |
| 2026-04-25 17:19 | 22.52935 | -42.65514 | 32988 ft | 555 kts | 76° |
| 2026-04-25 17:19 | 22.54424 | -42.57334 | 32989 ft | 554 kts | 76° |
| 2026-04-25 17:20 | 22.55908 | -42.49162 | 32995 ft | 553 kts | 76° |
| 2026-04-25 17:20 | 22.57387 | -42.40995 | 32983 ft | 553 kts | 76° |
| 2026-04-25 17:21 | 22.58865 | -42.32820 | 32985 ft | 553 kts | 76° |
| 2026-04-25 17:21 | 22.60338 | -42.24636 | 32995 ft | 554 kts | 76° |
| 2026-04-25 17:22 | 22.61310 | -42.19220 | 32991 ft | 554 kts | 76° |
| 2026-04-25 17:22 | 22.63259 | -42.08330 | 32983 ft | 554 kts | 76° |
| 2026-04-25 17:23 | 22.64718 | -42.00151 | 32996 ft | 554 kts | 76° |
| 2026-04-25 17:23 | 22.66166 | -41.91966 | 32992 ft | 553 kts | 76° |
| 2026-04-25 17:24 | 22.67601 | -41.83777 | 32986 ft | 554 kts | 76° |
| 2026-04-25 17:24 | 22.69042 | -41.75584 | 32995 ft | 553 kts | 76° |
| 2026-04-25 17:25 | 22.70483 | -41.67403 | 32992 ft | 553 kts | 76° |
| 2026-04-25 17:25 | 22.71925 | -41.59208 | 32994 ft | 554 kts | 76° |
| 2026-04-25 17:26 | 22.73360 | -41.51005 | 32993 ft | 554 kts | 76° |
| 2026-04-25 17:26 | 22.74791 | -41.42802 | 32988 ft | 554 kts | 76° |
| 2026-04-25 17:27 | 22.76218 | -41.34585 | 32996 ft | 554 kts | 76° |
| 2026-04-25 17:27 | 22.77161 | -41.29148 | 32987 ft | 554 kts | 76° |
| 2026-04-25 17:28 | 22.79062 | -41.18162 | 32990 ft | 555 kts | 76° |
| 2026-04-25 17:28 | 22.80470 | -41.09996 | 32995 ft | 555 kts | 76° |
| 2026-04-25 17:29 | 22.81872 | -41.01772 | 32993 ft | 555 kts | 76° |
| 2026-04-25 17:29 | 22.83266 | -40.93536 | 32989 ft | 555 kts | 76° |
| 2026-04-25 17:30 | 22.84664 | -40.85309 | 32993 ft | 555 kts | 76° |
| 2026-04-25 17:30 | 22.86066 | -40.77074 | 32986 ft | 555 kts | 76° |
| 2026-04-25 17:31 | 22.87465 | -40.68835 | 32986 ft | 555 kts | 76° |
| 2026-04-25 17:31 | 22.88860 | -40.60581 | 32996 ft | 556 kts | 76° |
| 2026-04-25 17:32 | 22.90014 | -40.53726 | 32996 ft | 556 kts | 76° |
| 2026-04-25 17:32 | 22.91400 | -40.45476 | 32987 ft | 555 kts | 76° |
| 2026-04-25 17:33 | 22.92780 | -40.37232 | 32986 ft | 556 kts | 76° |
| 2026-04-25 17:33 | 22.94155 | -40.28983 | 32989 ft | 556 kts | 76° |
| 2026-04-25 17:34 | 22.95530 | -40.20713 | 32995 ft | 556 kts | 76° |
| 2026-04-25 17:34 | 22.96893 | -40.12431 | 32990 ft | 557 kts | 76° |
| 2026-04-25 17:35 | 22.98244 | -40.04159 | 32995 ft | 557 kts | 76° |
| 2026-04-25 17:35 | 22.98841 | -39.95819 | 32989 ft | 562 kts | 92° |
| 2026-04-25 17:36 | 22.97290 | -39.87495 | 32993 ft | 565 kts | 107° |
| 2026-04-25 17:36 | 22.94887 | -39.79381 | 32989 ft | 565 kts | 107° |
| 2026-04-25 17:37 | 22.92709 | -39.71186 | 32996 ft | 565 kts | 105° |
| 2026-04-25 17:37 | 22.90750 | -39.62932 | 32986 ft | 565 kts | 104° |
| 2026-04-25 17:38 | 22.89158 | -39.56059 | 32978 ft | 565 kts | 104° |
| 2026-04-25 17:38 | 22.86899 | -39.46402 | 32979 ft | 565 kts | 104° |
| 2026-04-25 17:39 | 22.84943 | -39.38139 | 32977 ft | 565 kts | 104° |
| 2026-04-25 17:39 | 22.82980 | -39.29880 | 32982 ft | 565 kts | 104° |
| 2026-04-25 17:40 | 22.81017 | -39.21628 | 32987 ft | 565 kts | 104° |
| 2026-04-25 17:40 | 22.79051 | -39.13383 | 32979 ft | 565 kts | 104° |
| 2026-04-25 17:41 | 22.77083 | -39.05184 | 32975 ft | 566 kts | 104° |
| 2026-04-25 17:41 | 22.75094 | -38.96940 | 32983 ft | 565 kts | 104° |
| 2026-04-25 17:42 | 22.73107 | -38.88700 | 32978 ft | 565 kts | 104° |
| 2026-04-25 17:42 | 22.71121 | -38.80456 | 32985 ft | 565 kts | 104° |
| 2026-04-25 17:43 | 22.69134 | -38.72217 | 32983 ft | 565 kts | 104° |
| 2026-04-25 17:43 | 22.67141 | -38.63979 | 32985 ft | 566 kts | 104° |
| 2026-04-25 17:44 | 22.65143 | -38.55742 | 32983 ft | 566 kts | 104° |
| 2026-04-25 17:44 | 22.63142 | -38.47517 | 32978 ft | 565 kts | 104° |
| 2026-04-25 17:45 | 22.61478 | -38.40688 | 32981 ft | 564 kts | 104° |
| 2026-04-25 17:45 | 22.59133 | -38.31090 | 32984 ft | 564 kts | 104° |
| 2026-04-25 17:46 | 22.57123 | -38.22879 | 32984 ft | 564 kts | 105° |
| 2026-04-25 17:46 | 22.55094 | -38.14677 | 32978 ft | 564 kts | 105° |
| 2026-04-25 17:47 | 22.53065 | -38.06482 | 32980 ft | 564 kts | 105° |
| 2026-04-25 17:47 | 22.51044 | -37.98297 | 32985 ft | 563 kts | 105° |
| 2026-04-25 17:48 | 22.48005 | -37.86005 | 32982 ft | 564 kts | 105° |
| 2026-04-25 17:49 | 22.45981 | -37.77851 | 32976 ft | 565 kts | 105° |
| 2026-04-25 17:49 | 22.43942 | -37.69650 | 32984 ft | 565 kts | 105° |
| 2026-04-25 17:50 | 22.41899 | -37.61457 | 32982 ft | 564 kts | 105° |
| 2026-04-25 17:50 | 22.39851 | -37.53268 | 32985 ft | 565 kts | 105° |
| 2026-04-25 17:51 | 22.37801 | -37.45074 | 32979 ft | 565 kts | 105° |
| 2026-04-25 17:51 | 22.35746 | -37.36875 | 32979 ft | 565 kts | 105° |
| 2026-04-25 17:52 | 22.33671 | -37.28683 | 32981 ft | 565 kts | 105° |
| 2026-04-25 17:52 | 22.31591 | -37.20489 | 32979 ft | 566 kts | 105° |
| 2026-04-25 17:53 | 22.29514 | -37.12286 | 32975 ft | 566 kts | 105° |
| 2026-04-25 17:53 | 22.27439 | -37.04092 | 32978 ft | 566 kts | 105° |
| 2026-04-25 17:54 | 22.25356 | -36.95888 | 32981 ft | 567 kts | 105° |
| 2026-04-25 17:54 | 22.23268 | -36.87683 | 32980 ft | 567 kts | 105° |
| 2026-04-25 17:55 | 22.21189 | -36.79532 | 32982 ft | 567 kts | 105° |
| 2026-04-25 17:55 | 22.19093 | -36.71328 | 32978 ft | 567 kts | 105° |
| 2026-04-25 17:56 | 22.16990 | -36.63128 | 32982 ft | 567 kts | 105° |
| 2026-04-25 17:56 | 22.14885 | -36.54929 | 32976 ft | 567 kts | 105° |
| 2026-04-25 17:57 | 22.12773 | -36.46737 | 32977 ft | 567 kts | 105° |
| 2026-04-25 17:57 | 22.10642 | -36.38546 | 32985 ft | 567 kts | 105° |
| 2026-04-25 17:58 | 22.08519 | -36.30369 | 32976 ft | 566 kts | 105° |
| 2026-04-25 17:58 | 22.06401 | -36.22196 | 32978 ft | 566 kts | 105° |
| 2026-04-25 17:59 | 22.04123 | -36.14075 | 32978 ft | 566 kts | 109° |
| 2026-04-25 17:59 | 22.01405 | -36.06114 | 32971 ft | 566 kts | 111° |
| 2026-04-25 18:00 | 21.98588 | -35.98194 | 32968 ft | 566 kts | 111° |
| 2026-04-25 18:00 | 21.95825 | -35.90319 | 32975 ft | 566 kts | 111° |
| 2026-04-25 18:01 | 21.93069 | -35.82378 | 32971 ft | 566 kts | 111° |
| 2026-04-25 18:01 | 21.90314 | -35.74438 | 32972 ft | 566 kts | 111° |
| 2026-04-25 18:02 | 21.87542 | -35.66484 | 32970 ft | 566 kts | 111° |
| 2026-04-25 18:02 | 21.84775 | -35.58557 | 32971 ft | 566 kts | 111° |
| 2026-04-25 18:03 | 21.82006 | -35.50634 | 32949 ft | 565 kts | 111° |
| 2026-04-25 18:03 | 21.79234 | -35.42723 | 32926 ft | 565 kts | 111° |
| 2026-04-25 18:04 | 21.76459 | -35.34818 | 32928 ft | 565 kts | 111° |
| 2026-04-25 18:04 | 21.73666 | -35.26916 | 32925 ft | 565 kts | 111° |
| 2026-04-25 18:05 | 21.70875 | -35.19023 | 32928 ft | 565 kts | 111° |
| 2026-04-25 18:05 | 21.68105 | -35.11171 | 32924 ft | 564 kts | 111° |
| 2026-04-25 18:06 | 21.65321 | -35.03287 | 32921 ft | 565 kts | 111° |
| 2026-04-25 18:06 | 21.62527 | -34.95390 | 32901 ft | 565 kts | 111° |
| 2026-04-25 18:07 | 21.59728 | -34.87495 | 32879 ft | 565 kts | 111° |
| 2026-04-25 18:07 | 21.56924 | -34.79604 | 32878 ft | 565 kts | 111° |
| 2026-04-25 18:08 | 21.54118 | -34.71716 | 32878 ft | 566 kts | 111° |
| 2026-04-25 18:08 | 21.51301 | -34.63810 | 32878 ft | 566 kts | 111° |
| 2026-04-25 18:09 | 21.48477 | -34.55904 | 32878 ft | 566 kts | 111° |
| 2026-04-25 18:09 | 21.45669 | -34.48060 | 32887 ft | 566 kts | 111° |
| 2026-04-25 18:10 | 21.42825 | -34.40164 | 32885 ft | 567 kts | 111° |
| 2026-04-25 18:10 | 21.39980 | -34.32257 | 32904 ft | 567 kts | 111° |
| 2026-04-25 18:11 | 21.37142 | -34.24361 | 32921 ft | 567 kts | 111° |
| 2026-04-25 18:11 | 21.34300 | -34.16465 | 32922 ft | 568 kts | 111° |
| 2026-04-25 18:12 | 21.31454 | -34.08572 | 32925 ft | 567 kts | 111° |
| 2026-04-25 18:12 | 21.28601 | -34.00680 | 32926 ft | 567 kts | 111° |
| 2026-04-25 18:13 | 21.25743 | -33.92783 | 32928 ft | 568 kts | 111° |
| 2026-04-25 18:13 | 21.22902 | -33.84946 | 32924 ft | 567 kts | 111° |
| 2026-04-25 18:14 | 21.18609 | -33.73124 | 32925 ft | 567 kts | 111° |
| 2026-04-25 18:14 | 21.15736 | -33.65243 | 32926 ft | 567 kts | 111° |
| 2026-04-25 18:15 | 21.12858 | -33.57399 | 32926 ft | 566 kts | 112° |
| 2026-04-25 18:15 | 21.09980 | -33.49535 | 32928 ft | 566 kts | 112° |
| 2026-04-25 18:16 | 21.07106 | -33.41678 | 32927 ft | 567 kts | 112° |
| 2026-04-25 18:17 | 21.02790 | -33.29899 | 32925 ft | 566 kts | 112° |
| 2026-04-25 18:17 | 21.00394 | -33.23376 | 32925 ft | 566 kts | 112° |
| 2026-04-25 18:18 | 20.97509 | -33.15535 | 32926 ft | 566 kts | 112° |
| 2026-04-25 18:18 | 20.94621 | -33.07695 | 32925 ft | 566 kts | 112° |
| 2026-04-25 18:19 | 20.91728 | -32.99856 | 32924 ft | 566 kts | 112° |
| 2026-04-25 18:19 | 20.88832 | -32.92022 | 32925 ft | 566 kts | 112° |
| 2026-04-25 18:20 | 20.85932 | -32.84188 | 32925 ft | 566 kts | 112° |
| 2026-04-25 18:20 | 20.83011 | -32.76357 | 32923 ft | 566 kts | 112° |
| 2026-04-25 18:21 | 20.80097 | -32.68539 | 32926 ft | 566 kts | 112° |
| 2026-04-25 18:21 | 20.77204 | -32.60767 | 32926 ft | 566 kts | 112° |
| 2026-04-25 18:22 | 20.74287 | -32.52942 | 32924 ft | 567 kts | 112° |
| 2026-04-25 18:22 | 20.71375 | -32.45135 | 32926 ft | 566 kts | 112° |
| 2026-04-25 18:23 | 20.68457 | -32.37329 | 32926 ft | 566 kts | 112° |
| 2026-04-25 18:23 | 20.65535 | -32.29527 | 32924 ft | 566 kts | 112° |
| 2026-04-25 18:24 | 20.62615 | -32.21740 | 32926 ft | 565 kts | 112° |
| 2026-04-25 18:24 | 20.59598 | -32.14005 | 32926 ft | 564 kts | 115° |
| 2026-04-25 18:25 | 20.56336 | -32.06389 | 32925 ft | 564 kts | 116° |
| 2026-04-25 18:25 | 20.53026 | -31.98801 | 32925 ft | 563 kts | 116° |
| 2026-04-25 18:26 | 20.49742 | -31.91216 | 32923 ft | 563 kts | 116° |
| 2026-04-25 18:26 | 20.46483 | -31.83655 | 32929 ft | 563 kts | 116° |
| 2026-04-25 18:27 | 20.43210 | -31.76070 | 32923 ft | 563 kts | 116° |
| 2026-04-25 18:27 | 20.39929 | -31.68475 | 32924 ft | 563 kts | 116° |
| 2026-04-25 18:28 | 20.36646 | -31.60891 | 32928 ft | 563 kts | 116° |
| 2026-04-25 18:28 | 20.33361 | -31.53315 | 32927 ft | 563 kts | 116° |
| 2026-04-25 18:29 | 20.28428 | -31.41954 | 32923 ft | 563 kts | 116° |
| 2026-04-25 18:30 | 20.21809 | -31.26797 | 32922 ft | 564 kts | 116° |
| 2026-04-25 18:30 | 20.18498 | -31.19223 | 32923 ft | 564 kts | 116° |
| 2026-04-25 18:31 | 20.15190 | -31.11654 | 32925 ft | 564 kts | 116° |
| 2026-04-25 18:31 | 20.11881 | -31.04094 | 32941 ft | 564 kts | 116° |
| 2026-04-25 18:32 | 20.08583 | -30.96565 | 32943 ft | 565 kts | 116° |
| 2026-04-25 18:32 | 20.05263 | -30.88997 | 32945 ft | 565 kts | 116° |
| 2026-04-25 18:33 | 20.01939 | -30.81430 | 32944 ft | 565 kts | 116° |
| 2026-04-25 18:33 | 19.98606 | -30.73854 | 32945 ft | 565 kts | 116° |
| 2026-04-25 18:34 | 19.95291 | -30.66333 | 32936 ft | 560 kts | 116° |
| 2026-04-25 18:34 | 19.91988 | -30.58848 | 32935 ft | 560 kts | 116° |
| 2026-04-25 18:35 | 19.88668 | -30.51360 | 32935 ft | 560 kts | 116° |
| 2026-04-25 18:35 | 19.85346 | -30.43876 | 32935 ft | 560 kts | 117° |
| 2026-04-25 18:36 | 19.82024 | -30.36388 | 32934 ft | 560 kts | 117° |
| 2026-04-25 18:36 | 19.78698 | -30.28890 | 32934 ft | 561 kts | 117° |
| 2026-04-25 18:37 | 19.75373 | -30.21402 | 32934 ft | 560 kts | 117° |
| 2026-04-25 18:37 | 19.72046 | -30.13922 | 32935 ft | 561 kts | 117° |
| 2026-04-25 18:38 | 19.68712 | -30.06437 | 32934 ft | 561 kts | 117° |
| 2026-04-25 18:38 | 19.65378 | -29.98965 | 32935 ft | 561 kts | 117° |
| 2026-04-25 18:39 | 19.62055 | -29.91528 | 32934 ft | 561 kts | 117° |
| 2026-04-25 18:39 | 19.58707 | -29.84048 | 32934 ft | 560 kts | 117° |
| 2026-04-25 18:40 | 19.55367 | -29.76592 | 32934 ft | 560 kts | 117° |
| 2026-04-25 18:40 | 19.52015 | -29.69147 | 32934 ft | 559 kts | 117° |
| 2026-04-25 18:41 | 19.48668 | -29.61712 | 32933 ft | 559 kts | 117° |
| 2026-04-25 18:41 | 19.45322 | -29.54274 | 32934 ft | 558 kts | 117° |
| 2026-04-25 18:42 | 19.43089 | -29.49308 | 32933 ft | 558 kts | 117° |
| 2026-04-25 18:42 | 19.38644 | -29.39443 | 32934 ft | 557 kts | 117° |
| 2026-04-25 18:43 | 19.35301 | -29.32044 | 32934 ft | 556 kts | 117° |
| 2026-04-25 18:43 | 19.31959 | -29.24655 | 32934 ft | 556 kts | 117° |
| 2026-04-25 18:44 | 19.28618 | -29.17274 | 32934 ft | 556 kts | 117° |
| 2026-04-25 18:44 | 19.25280 | -29.09909 | 32934 ft | 555 kts | 117° |
| 2026-04-25 18:45 | 19.21939 | -29.02547 | 32934 ft | 555 kts | 117° |
| 2026-04-25 18:45 | 19.18590 | -28.95188 | 32935 ft | 555 kts | 117° |
| 2026-04-25 18:46 | 19.15256 | -28.87889 | 32934 ft | 554 kts | 117° |
| 2026-04-25 18:46 | 19.11899 | -28.80535 | 32934 ft | 554 kts | 117° |
| 2026-04-25 18:47 | 19.08550 | -28.73194 | 32934 ft | 554 kts | 117° |
| 2026-04-25 18:47 | 19.05203 | -28.65865 | 32934 ft | 553 kts | 117° |
| 2026-04-25 18:48 | 19.01856 | -28.58540 | 32935 ft | 553 kts | 117° |
| 2026-04-25 18:48 | 18.98509 | -28.51228 | 32935 ft | 553 kts | 117° |
| 2026-04-25 18:49 | 18.95181 | -28.43973 | 32934 ft | 552 kts | 117° |
| 2026-04-25 18:49 | 18.91832 | -28.36682 | 32934 ft | 551 kts | 117° |
| 2026-04-25 18:50 | 18.88482 | -28.29400 | 32934 ft | 551 kts | 117° |
| 2026-04-25 18:50 | 18.85131 | -28.22119 | 32933 ft | 550 kts | 117° |
| 2026-04-25 18:51 | 18.82893 | -28.17261 | 32935 ft | 550 kts | 117° |
| 2026-04-25 18:51 | 18.78425 | -28.07614 | 32934 ft | 549 kts | 117° |
| 2026-04-25 18:52 | 18.75074 | -28.00375 | 32933 ft | 549 kts | 117° |
| 2026-04-25 18:52 | 18.71731 | -27.93143 | 32934 ft | 548 kts | 117° |
| 2026-04-25 18:53 | 18.68388 | -27.85920 | 32934 ft | 547 kts | 117° |
| 2026-04-25 18:53 | 18.65048 | -27.78715 | 32934 ft | 547 kts | 117° |
| 2026-04-25 18:54 | 18.60054 | -27.67960 | 32934 ft | 547 kts | 117° |
| 2026-04-25 18:55 | 18.56708 | -27.60764 | 32934 ft | 547 kts | 117° |
| 2026-04-25 18:55 | 18.53338 | -27.53525 | 32933 ft | 546 kts | 117° |
| 2026-04-25 18:56 | 18.49990 | -27.46346 | 32934 ft | 546 kts | 117° |
| 2026-04-25 18:56 | 18.46634 | -27.39162 | 32935 ft | 546 kts | 118° |
| 2026-04-25 18:57 | 18.43267 | -27.31984 | 32933 ft | 547 kts | 118° |
| 2026-04-25 18:57 | 18.39923 | -27.24857 | 32933 ft | 546 kts | 118° |
| 2026-04-25 18:58 | 18.36558 | -27.17677 | 32933 ft | 546 kts | 118° |
| 2026-04-25 18:58 | 18.31510 | -27.06913 | 32935 ft | 547 kts | 118° |
| 2026-04-25 18:59 | 18.24771 | -26.92577 | 32933 ft | 546 kts | 118° |
| 2026-04-25 19:00 | 18.19717 | -26.81847 | 32933 ft | 545 kts | 118° |
| 2026-04-25 19:01 | 18.14619 | -26.71151 | 32933 ft | 545 kts | 119° |
| 2026-04-25 19:01 | 18.11075 | -26.64175 | 32933 ft | 544 kts | 120° |
| 2026-04-25 19:02 | 18.05672 | -26.53689 | 32936 ft | 543 kts | 120° |
| 2026-04-25 19:03 | 18.01482 | -26.45518 | 32933 ft | 543 kts | 120° |
| 2026-04-25 19:03 | 17.97298 | -26.37351 | 32933 ft | 542 kts | 120° |
| 2026-04-25 19:04 | 17.91961 | -26.26957 | 32935 ft | 542 kts | 120° |
| 2026-04-25 19:05 | 17.84797 | -26.13033 | 32936 ft | 542 kts | 120° |
| 2026-04-25 19:06 | 17.81212 | -26.06075 | 32933 ft | 542 kts | 120° |
| 2026-04-25 19:06 | 17.75828 | -25.95644 | 32935 ft | 542 kts | 120° |
| 2026-04-25 19:07 | 17.70429 | -25.85232 | 32935 ft | 542 kts | 120° |
| 2026-04-25 19:08 | 17.65038 | -25.74829 | 32933 ft | 541 kts | 120° |
| 2026-04-25 19:09 | 17.58460 | -25.62143 | 32935 ft | 541 kts | 120° |
| 2026-04-25 19:10 | 17.52455 | -25.50588 | 32934 ft | 540 kts | 120° |
| 2026-04-25 19:10 | 17.48857 | -25.43675 | 32935 ft | 540 kts | 120° |
| 2026-04-25 19:11 | 17.45258 | -25.36768 | 32934 ft | 540 kts | 120° |
| 2026-04-25 19:11 | 17.41659 | -25.29862 | 32934 ft | 540 kts | 120° |
| 2026-04-25 19:12 | 17.38062 | -25.22971 | 32934 ft | 539 kts | 120° |
| 2026-04-25 19:12 | 17.34479 | -25.16132 | 32935 ft | 539 kts | 120° |
| 2026-04-25 19:13 | 17.30868 | -25.09255 | 32935 ft | 539 kts | 120° |
| 2026-04-25 19:13 | 17.27260 | -25.02371 | 32934 ft | 539 kts | 120° |
| 2026-04-25 19:14 | 17.23656 | -24.95495 | 32934 ft | 539 kts | 120° |
| 2026-04-25 19:14 | 17.20045 | -24.88610 | 32935 ft | 539 kts | 120° |
| 2026-04-25 19:15 | 17.16434 | -24.81734 | 32935 ft | 539 kts | 120° |
| 2026-04-25 19:15 | 17.12818 | -24.74857 | 32933 ft | 539 kts | 120° |
| 2026-04-25 19:16 | 17.09204 | -24.67996 | 32933 ft | 538 kts | 120° |
| 2026-04-25 19:16 | 17.05592 | -24.61141 | 32934 ft | 538 kts | 120° |
| 2026-04-25 19:17 | 17.01978 | -24.54289 | 32934 ft | 538 kts | 120° |
| 2026-04-25 19:17 | 16.98363 | -24.47439 | 32934 ft | 538 kts | 120° |
| 2026-04-25 19:18 | 16.94734 | -24.40587 | 32935 ft | 538 kts | 120° |
| 2026-04-25 19:18 | 16.91097 | -24.33741 | 32934 ft | 538 kts | 120° |
| 2026-04-25 19:19 | 16.87473 | -24.26908 | 32935 ft | 538 kts | 120° |
| 2026-04-25 19:19 | 16.83873 | -24.20116 | 32935 ft | 538 kts | 120° |
| 2026-04-25 19:20 | 16.80253 | -24.13288 | 32934 ft | 538 kts | 120° |
| 2026-04-25 19:20 | 16.76624 | -24.06460 | 32934 ft | 537 kts | 120° |
| 2026-04-25 19:21 | 16.72996 | -23.99641 | 32935 ft | 538 kts | 120° |
| 2026-04-25 19:21 | 16.67552 | -23.89418 | 32935 ft | 537 kts | 120° |
| 2026-04-25 19:22 | 16.63926 | -23.82615 | 32934 ft | 537 kts | 120° |
| 2026-04-25 19:23 | 16.58472 | -23.72391 | 32935 ft | 537 kts | 120° |
| 2026-04-25 19:23 | 16.53021 | -23.62216 | 32935 ft | 536 kts | 120° |
| 2026-04-25 19:24 | 16.49379 | -23.55431 | 32934 ft | 537 kts | 120° |
| 2026-04-25 19:25 | 16.42114 | -23.41881 | 32933 ft | 537 kts | 120° |
| 2026-04-25 19:25 | 16.38467 | -23.35088 | 32935 ft | 537 kts | 120° |
| 2026-04-25 19:26 | 16.34819 | -23.28301 | 32934 ft | 537 kts | 120° |
| 2026-04-25 19:26 | 16.31167 | -23.21509 | 32933 ft | 537 kts | 120° |
| 2026-04-25 19:27 | 16.28135 | -23.15875 | 32934 ft | 537 kts | 120° |
| 2026-04-25 19:27 | 16.23891 | -23.07996 | 32934 ft | 537 kts | 120° |
| 2026-04-25 19:28 | 16.20231 | -23.01214 | 32934 ft | 537 kts | 120° |
| 2026-04-25 19:28 | 16.16575 | -22.94437 | 32935 ft | 537 kts | 120° |
| 2026-04-25 19:29 | 16.12917 | -22.87662 | 32935 ft | 537 kts | 120° |
| 2026-04-25 19:29 | 16.09306 | -22.80858 | 32934 ft | 537 kts | 119° |
| 2026-04-25 19:30 | 16.05713 | -22.74037 | 32931 ft | 537 kts | 119° |
| 2026-04-25 19:30 | 16.02120 | -22.67221 | 32934 ft | 537 kts | 119° |
| 2026-04-25 19:31 | 15.98523 | -22.60414 | 32934 ft | 537 kts | 119° |
| 2026-04-25 19:31 | 15.94931 | -22.53625 | 32934 ft | 535 kts | 119° |
| 2026-04-25 19:32 | 15.91340 | -22.46847 | 32934 ft | 535 kts | 119° |
| 2026-04-25 19:32 | 15.88963 | -22.42363 | 32933 ft | 536 kts | 119° |
| 2026-04-25 19:33 | 15.84171 | -22.33326 | 32934 ft | 536 kts | 119° |
| 2026-04-25 19:33 | 15.80568 | -22.26538 | 32933 ft | 537 kts | 119° |
| 2026-04-25 19:34 | 15.76961 | -22.19756 | 32933 ft | 536 kts | 119° |
| 2026-04-25 19:34 | 15.73352 | -22.12979 | 32926 ft | 536 kts | 119° |
| 2026-04-25 19:35 | 15.69733 | -22.06208 | 32928 ft | 536 kts | 120° |
| 2026-04-25 19:35 | 15.66117 | -21.99436 | 32925 ft | 536 kts | 119° |
| 2026-04-25 19:36 | 15.62507 | -21.92670 | 32925 ft | 535 kts | 119° |
| 2026-04-25 19:36 | 15.58897 | -21.85907 | 32929 ft | 535 kts | 119° |
| 2026-04-25 19:37 | 15.55288 | -21.79156 | 32926 ft | 535 kts | 119° |
| 2026-04-25 19:37 | 15.51674 | -21.72403 | 32926 ft | 535 kts | 119° |
| 2026-04-25 19:38 | 15.48059 | -21.65658 | 32921 ft | 535 kts | 119° |
| 2026-04-25 19:38 | 15.44443 | -21.58912 | 32918 ft | 534 kts | 120° |
| 2026-04-25 19:39 | 15.40829 | -21.52177 | 32917 ft | 534 kts | 119° |
| 2026-04-25 19:39 | 15.37244 | -21.45496 | 32916 ft | 534 kts | 120° |
| 2026-04-25 19:40 | 15.33631 | -21.38779 | 32916 ft | 533 kts | 119° |
| 2026-04-25 19:40 | 15.30011 | -21.32068 | 32916 ft | 533 kts | 119° |
| 2026-04-25 19:41 | 15.26397 | -21.25368 | 32903 ft | 533 kts | 119° |
| 2026-04-25 19:41 | 15.23982 | -21.20892 | 32902 ft | 533 kts | 119° |
| 2026-04-25 19:42 | 15.19172 | -21.11976 | 32906 ft | 532 kts | 119° |
| 2026-04-25 19:42 | 15.15565 | -21.05293 | 32901 ft | 531 kts | 119° |
| 2026-04-25 19:43 | 15.11959 | -20.98618 | 32904 ft | 531 kts | 119° |
| 2026-04-25 19:43 | 15.08350 | -20.91949 | 32898 ft | 531 kts | 119° |
| 2026-04-25 19:44 | 15.04737 | -20.85277 | 32894 ft | 531 kts | 119° |
| 2026-04-25 19:44 | 15.01122 | -20.78610 | 32903 ft | 531 kts | 119° |
| 2026-04-25 19:45 | 14.97507 | -20.71944 | 32895 ft | 530 kts | 119° |
| 2026-04-25 19:45 | 14.93899 | -20.65296 | 32892 ft | 530 kts | 119° |
| 2026-04-25 19:46 | 14.90280 | -20.58647 | 32881 ft | 531 kts | 120° |
| 2026-04-25 19:46 | 14.86658 | -20.52007 | 32879 ft | 530 kts | 120° |
| 2026-04-25 19:47 | 14.83064 | -20.45404 | 32879 ft | 530 kts | 119° |
| 2026-04-25 19:47 | 14.79448 | -20.38765 | 32879 ft | 530 kts | 119° |
| 2026-04-25 19:48 | 14.76443 | -20.33253 | 32871 ft | 529 kts | 119° |
| 2026-04-25 19:48 | 14.72827 | -20.26626 | 32869 ft | 529 kts | 119° |
| 2026-04-25 19:49 | 14.69795 | -20.21073 | 32869 ft | 529 kts | 119° |
| 2026-04-25 19:49 | 14.65857 | -20.13247 | 32863 ft | 528 kts | 111° |
| 2026-04-25 19:50 | 14.62401 | -20.02468 | 32859 ft | 527 kts | 105° |
| 2026-04-25 19:51 | 14.60237 | -19.95240 | 32853 ft | 527 kts | 106° |
| 2026-04-25 19:51 | 14.57984 | -19.88030 | 32852 ft | 527 kts | 107° |
| 2026-04-25 19:52 | 14.55700 | -19.80849 | 32849 ft | 527 kts | 107° |
| 2026-04-25 19:52 | 14.53424 | -19.73698 | 32845 ft | 527 kts | 107° |
| 2026-04-25 19:53 | 14.51136 | -19.66504 | 32841 ft | 527 kts | 107° |
| 2026-04-25 19:53 | 14.48845 | -19.59309 | 32843 ft | 527 kts | 107° |
| 2026-04-25 19:54 | 14.46555 | -19.52126 | 32841 ft | 527 kts | 107° |
| 2026-04-25 19:54 | 14.44262 | -19.44936 | 32841 ft | 527 kts | 107° |
| 2026-04-25 19:55 | 14.41971 | -19.37756 | 32843 ft | 527 kts | 107° |
| 2026-04-25 19:55 | 14.39668 | -19.30578 | 32832 ft | 527 kts | 107° |
| 2026-04-25 19:56 | 14.37374 | -19.23449 | 32831 ft | 527 kts | 107° |
| 2026-04-25 19:56 | 14.35069 | -19.16274 | 32831 ft | 527 kts | 107° |
| 2026-04-25 19:57 | 14.32767 | -19.09095 | 32831 ft | 527 kts | 107° |
| 2026-04-25 19:57 | 14.30462 | -19.01918 | 32831 ft | 527 kts | 107° |
| 2026-04-25 19:58 | 14.28149 | -18.94736 | 32831 ft | 527 kts | 107° |
| 2026-04-25 19:58 | 14.25839 | -18.87570 | 32831 ft | 526 kts | 107° |
| 2026-04-25 19:59 | 14.23535 | -18.80415 | 32831 ft | 526 kts | 107° |
| 2026-04-25 19:59 | 14.21224 | -18.73253 | 32835 ft | 526 kts | 107° |
| 2026-04-25 20:00 | 14.19302 | -18.67303 | 32831 ft | 526 kts | 107° |
| 2026-04-25 20:00 | 14.16597 | -18.58938 | 32828 ft | 525 kts | 107° |
| 2026-04-25 20:01 | 14.13137 | -18.48278 | 32822 ft | 525 kts | 107° |
| 2026-04-25 20:01 | 14.10847 | -18.41254 | 32770 ft | 513 kts | 107° |
| 2026-04-25 20:02 | 14.09722 | -18.37794 | 31625 ft | 510 kts | 107° |
| 2026-04-25 20:02 | 14.08601 | -18.34325 | 30291 ft | 513 kts | 107° |
| 2026-04-25 20:02 | 14.07467 | -18.30831 | 28964 ft | 516 kts | 107° |
| 2026-04-25 20:02 | 14.06330 | -18.27339 | 27915 ft | 513 kts | 107° |
| 2026-04-25 20:03 | 14.05187 | -18.23834 | 26999 ft | 515 kts | 108° |
| 2026-04-25 20:03 | 14.04046 | -18.20332 | 26102 ft | 514 kts | 108° |
| 2026-04-25 20:03 | 14.02910 | -18.16852 | 25309 ft | 510 kts | 108° |
| 2026-04-25 20:03 | 14.01789 | -18.13416 | 24604 ft | 503 kts | 108° |
| 2026-04-25 20:04 | 14.00683 | -18.10023 | 23933 ft | 496 kts | 109° |
| 2026-04-25 20:04 | 13.99615 | -18.06670 | 23304 ft | 489 kts | 107° |
| 2026-04-25 20:04 | 13.98878 | -18.03281 | 22616 ft | 484 kts | 97° |
| 2026-04-25 20:04 | 13.98840 | -17.99839 | 21920 ft | 478 kts | 83° |
| 2026-04-25 20:05 | 13.99591 | -17.96531 | 21244 ft | 473 kts | 69° |
| 2026-04-25 20:05 | 14.01079 | -17.93538 | 20586 ft | 468 kts | 55° |
| 2026-04-25 20:05 | 14.03026 | -17.90882 | 19938 ft | 463 kts | 49° |
| 2026-04-25 20:05 | 14.05106 | -17.88367 | 19286 ft | 459 kts | 48° |
| 2026-04-25 20:06 | 14.07139 | -17.85908 | 18645 ft | 455 kts | 49° |
| 2026-04-25 20:06 | 14.09136 | -17.83394 | 17990 ft | 451 kts | 50° |
| 2026-04-25 20:06 | 14.11068 | -17.80859 | 17359 ft | 447 kts | 51° |
| 2026-04-25 20:06 | 14.12943 | -17.78321 | 16708 ft | 444 kts | 52° |
| 2026-04-25 20:07 | 14.14782 | -17.75789 | 16070 ft | 439 kts | 52° |
| 2026-04-25 20:07 | 14.16595 | -17.73276 | 15456 ft | 435 kts | 53° |
| 2026-04-25 20:07 | 14.18384 | -17.70789 | 15001 ft | 430 kts | 53° |
| 2026-04-25 20:07 | 14.20160 | -17.68316 | 14634 ft | 428 kts | 53° |
| 2026-04-25 20:08 | 14.21923 | -17.65862 | 14250 ft | 425 kts | 53° |
| 2026-04-25 20:08 | 14.23682 | -17.63420 | 13931 ft | 422 kts | 53° |
| 2026-04-25 20:08 | 14.25431 | -17.60991 | 13844 ft | 421 kts | 53° |
| 2026-04-25 20:08 | 14.27176 | -17.58568 | 13829 ft | 421 kts | 53° |
| 2026-04-25 20:09 | 14.28900 | -17.56173 | 13818 ft | 421 kts | 53° |
| 2026-04-25 20:09 | 14.30643 | -17.53752 | 13813 ft | 420 kts | 53° |
| 2026-04-25 20:09 | 14.32379 | -17.51339 | 13821 ft | 412 kts | 53° |
| 2026-04-25 20:09 | 14.34027 | -17.49046 | 13819 ft | 385 kts | 53° |
| 2026-04-25 20:10 | 14.35569 | -17.46901 | 13826 ft | 360 kts | 53° |
| 2026-04-25 20:10 | 14.37013 | -17.44891 | 13832 ft | 339 kts | 53° |
| 2026-04-25 20:10 | 14.38377 | -17.42991 | 13834 ft | 322 kts | 53° |
| 2026-04-25 20:10 | 14.39565 | -17.41334 | 13838 ft | 318 kts | 53° |
| 2026-04-25 20:11 | 14.40884 | -17.39500 | 13841 ft | 318 kts | 53° |
| 2026-04-25 20:11 | 14.42200 | -17.37670 | 13841 ft | 318 kts | 53° |
| 2026-04-25 20:11 | 14.43515 | -17.35839 | 13840 ft | 318 kts | 53° |
| 2026-04-25 20:11 | 14.44785 | -17.33974 | 13839 ft | 318 kts | 60° |
| 2026-04-25 20:12 | 14.45562 | -17.31859 | 13841 ft | 315 kts | 82° |
| 2026-04-25 20:12 | 14.45483 | -17.29621 | 13840 ft | 313 kts | 106° |
| 2026-04-25 20:12 | 14.44557 | -17.27618 | 13843 ft | 310 kts | 130° |
| 2026-04-25 20:12 | 14.44079 | -17.27057 | 13843 ft | 308 kts | 138° |
| 2026-04-25 20:13 | 14.41129 | -17.25017 | 13844 ft | 308 kts | 153° |
| 2026-04-25 20:13 | 14.39247 | -17.23959 | 13843 ft | 308 kts | 153° |
| 2026-04-25 20:13 | 14.37355 | -17.22919 | 13840 ft | 307 kts | 156° |
| 2026-04-25 20:13 | 14.35321 | -17.22325 | 13843 ft | 303 kts | 176° |
| 2026-04-25 20:14 | 14.33210 | -17.22257 | 13845 ft | 304 kts | 182° |
| 2026-04-25 20:14 | 14.31095 | -17.22311 | 13842 ft | 304 kts | 183° |
| 2026-04-25 20:14 | 14.28984 | -17.22386 | 13840 ft | 304 kts | 183° |
| 2026-04-25 20:14 | 14.26872 | -17.22463 | 13842 ft | 304 kts | 183° |
| 2026-04-25 20:15 | 14.24759 | -17.22541 | 13840 ft | 304 kts | 183° |
| 2026-04-25 20:15 | 14.22675 | -17.22619 | 13842 ft | 304 kts | 183° |
| 2026-04-25 20:15 | 14.20557 | -17.22701 | 13840 ft | 304 kts | 183° |
| 2026-04-25 20:15 | 14.18443 | -17.22783 | 13840 ft | 304 kts | 183° |
| 2026-04-25 20:16 | 14.16327 | -17.22867 | 13841 ft | 304 kts | 184° |
| 2026-04-25 20:16 | 14.14209 | -17.22952 | 13842 ft | 304 kts | 183° |
| 2026-04-25 20:16 | 14.12091 | -17.23036 | 13841 ft | 304 kts | 183° |
| 2026-04-25 20:16 | 14.09977 | -17.23119 | 13831 ft | 304 kts | 183° |
| 2026-04-25 20:17 | 14.07861 | -17.23202 | 13832 ft | 303 kts | 183° |
| 2026-04-25 20:17 | 14.05767 | -17.23283 | 13450 ft | 299 kts | 183° |
| 2026-04-25 20:17 | 14.03683 | -17.23363 | 13079 ft | 301 kts | 183° |
| 2026-04-25 20:17 | 14.01605 | -17.23448 | 12705 ft | 295 kts | 183° |
| 2026-04-25 20:18 | 13.99564 | -17.23534 | 12329 ft | 292 kts | 183° |
| 2026-04-25 20:18 | 13.97547 | -17.23626 | 11953 ft | 289 kts | 183° |
| 2026-04-25 20:18 | 13.95544 | -17.23731 | 11577 ft | 288 kts | 183° |
| 2026-04-25 20:18 | 13.93545 | -17.23845 | 11201 ft | 287 kts | 183° |
| 2026-04-25 20:19 | 13.91649 | -17.23956 | 10848 ft | 288 kts | 183° |
| 2026-04-25 20:19 | 13.89650 | -17.24073 | 10469 ft | 287 kts | 183° |
| 2026-04-25 20:19 | 13.87656 | -17.24190 | 10095 ft | 287 kts | 183° |
| 2026-04-25 20:19 | 13.85682 | -17.24306 | 9722 ft | 288 kts | 183° |
| 2026-04-25 20:20 | 13.83688 | -17.24418 | 9346 ft | 286 kts | 183° |
| 2026-04-25 20:20 | 13.81700 | -17.24518 | 8969 ft | 286 kts | 183° |
| 2026-04-25 20:20 | 13.79721 | -17.24452 | 8582 ft | 287 kts | 167° |
| 2026-04-25 20:20 | 13.77924 | -17.23599 | 8194 ft | 286 kts | 140° |
| 2026-04-25 20:21 | 13.76718 | -17.22031 | 8022 ft | 279 kts | 112° |
| 2026-04-25 20:21 | 13.76351 | -17.20093 | 7995 ft | 278 kts | 85° |
| 2026-04-25 20:21 | 13.76875 | -17.18211 | 7996 ft | 275 kts | 58° |
| 2026-04-25 20:21 | 13.78172 | -17.16792 | 7993 ft | 274 kts | 31° |
| 2026-04-25 20:22 | 13.79948 | -17.16143 | 7990 ft | 273 kts | 5° |
| 2026-04-25 20:22 | 13.80587 | -17.16107 | 7991 ft | 273 kts | 0° |
| 2026-04-25 20:22 | 13.83413 | -17.16276 | 7997 ft | 274 kts | 358° |
| 2026-04-25 20:22 | 13.85315 | -17.16138 | 7991 ft | 275 kts | 9° |
| 2026-04-25 20:23 | 13.87197 | -17.15783 | 7995 ft | 275 kts | 11° |
| 2026-04-25 20:23 | 13.89076 | -17.15405 | 7996 ft | 275 kts | 11° |
| 2026-04-25 20:23 | 13.90933 | -17.15042 | 7987 ft | 275 kts | 10° |
| 2026-04-25 20:23 | 13.92808 | -17.14687 | 7992 ft | 274 kts | 10° |
| 2026-04-25 20:24 | 13.94694 | -17.14343 | 7991 ft | 275 kts | 9° |
| 2026-04-25 20:24 | 13.96580 | -17.14010 | 7992 ft | 275 kts | 9° |
| 2026-04-25 20:24 | 13.98465 | -17.13680 | 7998 ft | 275 kts | 9° |
| 2026-04-25 20:24 | 14.00354 | -17.13353 | 8000 ft | 275 kts | 9° |
| 2026-04-25 20:25 | 14.02241 | -17.13028 | 8002 ft | 276 kts | 9° |
| 2026-04-25 20:25 | 14.04135 | -17.12703 | 7999 ft | 276 kts | 9° |
| 2026-04-25 20:25 | 14.06027 | -17.12382 | 8003 ft | 276 kts | 9° |
| 2026-04-25 20:25 | 14.07930 | -17.12060 | 8002 ft | 276 kts | 9° |
| 2026-04-25 20:26 | 14.09829 | -17.11738 | 8003 ft | 276 kts | 9° |
| 2026-04-25 20:26 | 14.11720 | -17.11417 | 7999 ft | 276 kts | 9° |
| 2026-04-25 20:26 | 14.13601 | -17.11098 | 7806 ft | 273 kts | 9° |
| 2026-04-25 20:26 | 14.15481 | -17.10779 | 7419 ft | 274 kts | 9° |
| 2026-04-25 20:27 | 14.17363 | -17.10459 | 6950 ft | 276 kts | 9° |
| 2026-04-25 20:27 | 14.19265 | -17.10136 | 6448 ft | 278 kts | 9° |
| 2026-04-25 20:27 | 14.21182 | -17.09812 | 5946 ft | 278 kts | 9° |
| 2026-04-25 20:27 | 14.23053 | -17.09495 | 5451 ft | 267 kts | 9° |
| 2026-04-25 20:28 | 14.24865 | -17.09188 | 4947 ft | 262 kts | 9° |
| 2026-04-25 20:28 | 14.26638 | -17.08886 | 4447 ft | 253 kts | 9° |
| 2026-04-25 20:28 | 14.28343 | -17.08598 | 4054 ft | 244 kts | 8° |
| 2026-04-25 20:28 | 14.29960 | -17.08324 | 3689 ft | 227 kts | 8° |
| 2026-04-25 20:29 | 14.31488 | -17.08065 | 3305 ft | 219 kts | 8° |
| 2026-04-25 20:29 | 14.32971 | -17.07815 | 3047 ft | 215 kts | 9° |
| 2026-04-25 20:29 | 14.34459 | -17.07556 | 3003 ft | 218 kts | 9° |
| 2026-04-25 20:29 | 14.35938 | -17.07296 | 3001 ft | 215 kts | 8° |
| 2026-04-25 20:30 | 14.37418 | -17.07118 | 3000 ft | 214 kts | 2° |
| 2026-04-25 20:30 | 14.38909 | -17.07082 | 3001 ft | 214 kts | 0° |
| 2026-04-25 20:30 | 14.40400 | -17.07058 | 2999 ft | 214 kts | 0° |
| 2026-04-25 20:30 | 14.41889 | -17.07068 | 3002 ft | 215 kts | 359° |
| 2026-04-25 20:31 | 14.43376 | -17.07087 | 3006 ft | 217 kts | 359° |
| 2026-04-25 20:31 | 14.44886 | -17.07104 | 3000 ft | 216 kts | 359° |
| 2026-04-25 20:31 | 14.46380 | -17.07117 | 2997 ft | 215 kts | 358° |
| 2026-04-25 20:31 | 14.47866 | -17.07143 | 2998 ft | 213 kts | 359° |
| 2026-04-25 20:32 | 14.49354 | -17.07157 | 3012 ft | 214 kts | 359° |
| 2026-04-25 20:32 | 14.50844 | -17.07165 | 3003 ft | 214 kts | 359° |
| 2026-04-25 20:32 | 14.52323 | -17.07181 | 2830 ft | 206 kts | 359° |
| 2026-04-25 20:32 | 14.53698 | -17.07189 | 2552 ft | 188 kts | 359° |
| 2026-04-25 20:33 | 14.54968 | -17.07197 | 2316 ft | 180 kts | 359° |
| 2026-04-25 20:33 | 14.56209 | -17.07205 | 2103 ft | 176 kts | 359° |
| 2026-04-25 20:33 | 14.57363 | -17.07213 | 1839 ft | 157 kts | 359° |
| 2026-04-25 20:33 | 14.57729 | -17.07215 | 1769 ft | 156 kts | 359° |
| 2026-04-25 20:34 | 14.59158 | -17.07226 | 1533 ft | 154 kts | 358° |
| 2026-04-25 20:34 | 14.60573 | -17.07238 | 1275 ft | 150 kts | 359° |
| 2026-04-25 20:34 | 14.61262 | -17.07242 | 1138 ft | 147 kts | 359° |
| 2026-04-25 20:34 | 14.62280 | -17.07250 | 930 ft | 146 kts | 359° |
| 2026-04-25 20:35 | 14.63622 | -17.07259 | 684 ft | 146 kts | 359° |
| 2026-04-25 20:35 | 14.64634 | -17.07266 | 492 ft | 145 kts | 359° |
| 2026-04-25 20:35 | 14.65649 | -17.07271 | 316 ft | 146 kts | 359° |
| 2026-04-25 20:35 | 14.66511 | -17.07277 | 301 ft | 96 kts | 359° |
| 2026-04-25 20:36 | 14.66870 | -17.07282 | 306 ft | 46 kts | 359° |
| 2026-04-25 20:36 | 14.67049 | -17.07254 | 306 ft | 17 kts | 42° |
| 2026-04-25 20:36 | 14.67077 | -17.07164 | 304 ft | 12 kts | 90° |
| 2026-04-25 20:36 | 14.67077 | -17.07152 | 304 ft | 0 kts | 90° |
| 2026-04-25 20:37 | 14.67077 | -17.07147 | 305 ft | 3 kts | 90° |
| 2026-04-25 20:37 | 14.67068 | -17.07118 | 303 ft | 6 kts | 123° |
| 2026-04-25 20:37 | 14.67011 | -17.07092 | 304 ft | 12 kts | 174° |
| 2026-04-25 20:37 | 14.66908 | -17.07089 | 302 ft | 17 kts | 180° |
| 2026-04-25 20:38 | 14.66796 | -17.07089 | 303 ft | 15 kts | 180° |
| 2026-04-25 20:38 | 14.66703 | -17.07085 | 304 ft | 11 kts | 169° |
| 2026-04-25 20:38 | 14.66659 | -17.07041 | 300 ft | 8 kts | 102° |
| 2026-04-25 20:38 | 14.66662 | -17.06983 | 300 ft | 8 kts | 86° |
| 2026-04-25 20:39 | 14.66664 | -17.06930 | 300 ft | 9 kts | 89° |
| 2026-04-25 20:39 | 14.66664 | -17.06852 | 300 ft | 10 kts | 90° |
| 2026-04-25 20:39 | 14.66669 | -17.06808 | 302 ft | 3 kts | 67° |
| 2026-04-25 20:39 | 14.66681 | -17.06800 | 300 ft | 3 kts | 27° |
| 2026-04-25 20:40 | 14.66707 | -17.06797 | 300 ft | 5 kts | 3° |
| 2026-04-25 20:40 | 14.66747 | -17.06797 | 300 ft | 2 kts | 0° |
| 2026-04-25 20:40 | 14.66757 | -17.06797 | 300 ft | 2 kts | 360° |
| 2026-04-25 20:40 | 14.66765 | -17.06797 | 300 ft | 0 kts | 360° |